createdAt,value
2024-04-25T00:01:01.102Z,0.93
2024-04-25T00:03:28.340Z,0.80
2024-04-25T00:05:55.626Z,0.75
2024-04-25T00:08:22.812Z,0.70
2024-04-25T00:10:51.577Z,1.38
2024-04-25T00:13:27.351Z,1.58
2024-04-25T00:15:55.535Z,1.13
2024-04-25T00:18:22.899Z,0.93
2024-04-25T00:20:50.075Z,0.90
2024-04-25T00:23:17.227Z,0.98
2024-04-25T00:25:44.369Z,1.00
2024-04-25T00:28:11.794Z,1.15
2024-04-25T00:30:41.456Z,1.45
2024-04-25T00:33:08.821Z,1.10
2024-04-25T00:35:36.096Z,1.27
2024-04-25T00:38:03.455Z,1.25
2024-04-25T00:40:31.025Z,1.50
2024-04-25T00:43:01.047Z,1.40
2024-04-25T00:45:28.165Z,1.33
2024-04-25T00:47:57.910Z,1.40
2024-04-25T00:50:25.378Z,1.10
2024-04-25T00:52:52.982Z,1.45
2024-04-25T00:55:20.838Z,1.45
2024-04-25T00:57:49.008Z,1.10
2024-04-25T01:00:18.099Z,1.05
2024-04-25T01:02:46.442Z,1.02
2024-04-25T01:05:16.731Z,1.40
2024-04-25T01:07:43.982Z,1.10
2024-04-25T01:10:11.119Z,0.80
2024-04-25T01:12:38.236Z,1.23
2024-04-25T01:15:06.224Z,1.38
2024-04-25T01:17:33.518Z,1.20
2024-04-25T01:20:00.689Z,1.20
2024-04-25T01:22:40.075Z,1.27
2024-04-25T01:25:11.152Z,1.10
2024-04-25T01:27:39.643Z,1.10
2024-04-25T01:30:10.225Z,1.27
2024-04-25T01:32:39.005Z,1.30
2024-04-25T01:35:08.771Z,1.00
2024-04-25T01:37:36.006Z,1.00
2024-04-25T01:40:03.481Z,1.17
2024-04-25T01:42:33.183Z,1.00
2024-04-25T01:45:00.346Z,1.17
2024-04-25T01:47:27.626Z,0.80
2024-04-25T01:49:54.792Z,0.77
2024-04-25T01:52:22.190Z,0.95
2024-04-25T01:54:49.308Z,0.85
2024-04-25T01:57:16.409Z,0.70
2024-04-25T01:59:46.073Z,0.70
2024-04-25T02:02:13.285Z,0.95
2024-04-25T02:04:40.386Z,0.95
2024-04-25T02:07:11.830Z,0.77
2024-04-25T02:09:39.407Z,0.77
2024-04-25T02:12:07.536Z,0.75
2024-04-25T02:14:34.979Z,0.95
2024-04-25T02:17:04.717Z,0.82
2024-04-25T02:19:31.942Z,0.60
2024-04-25T02:22:17.819Z,0.98
2024-04-25T02:25:03.666Z,0.63
2024-04-25T02:27:31.015Z,0.80
2024-04-25T02:29:58.153Z,0.90
2024-04-25T02:32:27.843Z,0.82
2024-04-25T02:34:55.007Z,1.00
2024-04-25T02:37:22.132Z,0.98
2024-04-25T02:39:49.264Z,1.17
2024-04-25T02:42:16.539Z,1.02
2024-04-25T02:44:43.761Z,1.33
2024-04-25T02:47:10.847Z,1.10
2024-04-25T02:49:40.451Z,1.02
2024-04-25T02:52:07.572Z,1.17
2024-04-25T02:54:34.666Z,1.65
2024-04-25T02:57:02.630Z,1.75
2024-04-25T02:59:29.727Z,1.23
2024-04-25T03:01:56.873Z,0.73
2024-04-25T03:04:24.059Z,1.23
2024-04-25T03:06:53.631Z,1.05
2024-04-25T03:09:20.680Z,1.00
2024-04-25T03:11:48.002Z,1.00
2024-04-25T03:14:15.357Z,0.98
2024-04-25T03:16:42.535Z,0.98
2024-04-25T03:19:09.724Z,1.20
2024-04-25T03:21:36.907Z,1.15
2024-04-25T03:24:07.762Z,0.90
2024-04-25T03:26:34.902Z,0.98
2024-04-25T03:29:02.042Z,1.00
2024-04-25T03:31:29.145Z,0.98
2024-04-25T03:33:56.237Z,1.00
2024-04-25T03:36:25.774Z,1.10
2024-04-25T03:38:52.902Z,0.93
2024-04-25T03:41:22.718Z,1.13
2024-04-25T03:43:49.909Z,0.98
2024-04-25T03:46:17.086Z,1.13
2024-04-25T03:48:44.287Z,0.80
2024-04-25T03:51:12.164Z,1.00
2024-04-25T03:53:39.285Z,1.10
2024-04-25T03:56:06.640Z,1.23
2024-04-25T03:58:36.210Z,0.82
2024-04-25T04:01:03.608Z,0.75
2024-04-25T04:03:31.121Z,1.15
2024-04-25T04:05:58.341Z,0.90
2024-04-25T04:08:25.783Z,1.13
2024-04-25T04:10:53.120Z,1.27
2024-04-25T04:13:20.291Z,0.95
2024-04-25T04:15:49.903Z,1.00
2024-04-25T04:18:17.166Z,1.00
2024-04-25T04:20:46.144Z,1.33
2024-04-25T04:23:13.419Z,1.15
2024-04-25T04:25:40.556Z,1.33
2024-04-25T04:28:07.691Z,1.20
2024-04-25T04:30:35.929Z,1.15
2024-04-25T04:33:05.881Z,1.30
2024-04-25T04:35:33.063Z,1.45
2024-04-25T04:38:00.397Z,1.45
2024-04-25T04:40:27.568Z,1.58
2024-04-25T04:42:55.094Z,1.98
2024-04-25T04:45:22.264Z,1.75
2024-04-25T04:47:49.488Z,2.30
2024-04-25T04:50:20.457Z,1.92
2024-04-25T04:52:47.801Z,2.08
2024-04-25T04:55:14.988Z,1.55
2024-04-25T04:57:42.167Z,2.10
2024-04-25T05:00:10.240Z,2.30
2024-04-25T05:02:37.531Z,1.73
2024-04-25T05:05:05.298Z,1.50
2024-04-25T05:07:35.409Z,1.60
2024-04-25T05:10:02.538Z,1.45
2024-04-25T05:12:29.799Z,1.80
2024-04-25T05:14:57.072Z,1.60
2024-04-25T05:17:24.217Z,1.75
2024-04-25T05:19:51.318Z,1.75
2024-04-25T05:22:18.806Z,1.63
2024-04-25T05:24:48.406Z,2.30
2024-04-25T05:27:15.537Z,1.83
2024-04-25T05:29:42.744Z,1.70
2024-04-25T05:32:09.976Z,1.70
2024-04-25T05:34:37.338Z,1.60
2024-04-25T05:37:04.640Z,1.90
2024-04-25T05:39:31.851Z,1.73
2024-04-25T05:42:01.455Z,1.45
2024-04-25T05:44:28.574Z,1.88
2024-04-25T05:46:56.077Z,1.95
2024-04-25T05:49:23.155Z,1.90
2024-04-25T05:51:50.246Z,1.77
2024-04-25T05:54:17.378Z,1.67
2024-04-25T05:56:44.488Z,1.45
2024-04-25T05:59:14.110Z,1.50
2024-04-25T06:01:41.291Z,1.38
2024-04-25T06:04:08.539Z,1.40
2024-04-25T06:06:35.724Z,1.48
2024-04-25T06:09:02.848Z,1.17
2024-04-25T06:11:34.154Z,1.40
2024-04-25T06:14:01.816Z,1.17
2024-04-25T06:16:31.478Z,1.33
2024-04-25T06:18:58.768Z,1.15
2024-04-25T06:21:25.864Z,1.45
2024-04-25T06:23:53.654Z,1.35
2024-04-25T06:26:21.103Z,1.65
2024-04-25T06:28:48.312Z,1.33
2024-04-25T06:31:15.448Z,1.50
2024-04-25T06:33:45.078Z,1.52
2024-04-25T06:36:13.342Z,1.30
2024-04-25T06:38:41.074Z,2.22
2024-04-25T06:41:08.387Z,1.48
2024-04-25T06:43:35.985Z,1.83
2024-04-25T06:46:03.584Z,1.63
2024-04-25T06:48:30.776Z,2.03
2024-04-25T06:51:03.051Z,1.70
2024-04-25T06:53:30.213Z,1.52
2024-04-25T06:55:57.930Z,1.80
2024-04-25T06:58:25.018Z,1.52
2024-04-25T07:00:52.150Z,1.70
2024-04-25T07:03:19.309Z,1.70
2024-04-25T07:05:47.574Z,1.90
2024-04-25T07:08:17.248Z,1.70
2024-04-25T07:10:44.476Z,1.92
2024-04-25T07:13:11.624Z,1.65
2024-04-25T07:15:38.741Z,1.60
2024-04-25T07:18:08.272Z,1.98
2024-04-25T07:20:36.014Z,1.80
2024-04-25T07:23:03.482Z,2.10
2024-04-25T07:25:33.211Z,1.75
2024-04-25T07:28:00.271Z,1.67
2024-04-25T07:30:27.422Z,1.88
2024-04-25T07:32:54.635Z,1.88
2024-04-25T07:35:21.853Z,1.85
2024-04-25T07:37:48.945Z,2.00
2024-04-25T07:40:16.196Z,2.03
2024-04-25T07:42:45.775Z,1.65
2024-04-25T07:45:12.907Z,1.60
2024-04-25T07:47:40.390Z,1.80
2024-04-25T07:50:07.926Z,1.80
2024-04-25T07:52:35.438Z,1.73
2024-04-25T07:55:02.971Z,1.50
2024-04-25T07:57:30.023Z,1.75
2024-04-25T07:59:59.620Z,2.03
2024-04-25T08:02:26.846Z,1.98
2024-04-25T08:04:56.341Z,1.63
2024-04-25T08:07:23.488Z,1.50
2024-04-25T08:09:50.599Z,1.40
2024-04-25T08:12:17.713Z,1.38
2024-04-25T08:14:45.660Z,1.27
2024-04-25T08:17:16.097Z,1.40
2024-04-25T08:19:43.182Z,1.58
2024-04-25T08:22:10.619Z,1.20
2024-04-25T08:24:37.715Z,1.00
2024-04-25T08:27:04.784Z,1.20
2024-04-25T08:29:33.912Z,1.40
2024-04-25T08:32:00.989Z,1.30
2024-04-25T08:34:30.559Z,1.40
2024-04-25T08:36:57.687Z,1.20
2024-04-25T08:39:24.774Z,1.48
2024-04-25T08:41:53.398Z,1.05
2024-04-25T08:44:21.617Z,1.30
2024-04-25T08:46:49.995Z,0.85
2024-04-25T08:49:18.815Z,0.85
2024-04-25T08:51:51.614Z,0.75
2024-04-25T08:54:22.372Z,1.02
2024-04-25T08:56:49.520Z,0.88
2024-04-25T08:59:16.646Z,0.73
2024-04-25T09:01:46.474Z,0.70
2024-04-25T09:04:17.675Z,0.90
2024-04-25T09:06:46.709Z,0.68
2024-04-25T09:09:19.329Z,0.75
2024-04-25T09:11:54.369Z,0.85
2024-04-25T09:14:22.053Z,0.65
2024-04-25T09:16:49.342Z,0.63
2024-04-25T09:19:16.472Z,0.70
2024-04-25T09:21:44.555Z,0.73
2024-04-25T09:24:12.719Z,0.77
2024-04-25T09:26:42.715Z,0.70
2024-04-25T09:29:10.316Z,0.90
2024-04-25T09:31:38.810Z,0.85
2024-04-25T09:34:05.993Z,1.00
2024-04-25T09:36:34.356Z,1.15
2024-04-25T09:39:01.532Z,0.98
2024-04-25T09:41:28.963Z,0.93
2024-04-25T09:43:59.057Z,0.93
2024-04-25T09:46:33.315Z,1.10
2024-04-25T09:49:06.810Z,0.98
2024-04-25T09:51:38.996Z,0.80
2024-04-25T09:54:11.912Z,0.90
2024-04-25T09:56:39.875Z,1.20
2024-04-25T09:59:19.488Z,1.25
2024-04-25T10:01:48.772Z,1.13
2024-04-25T10:04:16.251Z,1.10
2024-04-25T10:06:44.364Z,1.27
2024-04-25T10:09:12.128Z,1.10
2024-04-25T10:11:39.951Z,1.17
2024-04-25T10:14:07.119Z,1.40
2024-04-25T10:16:36.814Z,1.42
2024-04-25T10:19:04.182Z,1.10
2024-04-25T10:21:31.406Z,0.98
2024-04-25T10:24:11.260Z,1.40
2024-04-25T10:26:38.371Z,1.30
2024-04-25T10:29:06.684Z,1.50
2024-04-25T10:31:38.756Z,1.23
2024-04-25T10:34:08.764Z,1.27
2024-04-25T10:36:37.555Z,1.30
2024-04-25T10:39:08.652Z,1.23
2024-04-25T10:41:38.125Z,1.23
2024-04-25T10:44:06.464Z,1.05
2024-04-25T10:46:33.986Z,1.27
2024-04-25T10:49:05.179Z,1.23
2024-04-25T10:51:35.831Z,1.50
2024-04-25T10:54:03.087Z,1.17
2024-04-25T10:56:30.711Z,1.42
2024-04-25T10:58:58.982Z,1.80
2024-04-25T11:01:27.302Z,1.67
2024-04-25T11:03:58.552Z,1.88
2024-04-25T11:06:32.356Z,2.00
2024-04-25T11:09:00.954Z,1.65
2024-04-25T11:11:29.058Z,2.15
2024-04-25T11:13:56.684Z,1.73
2024-04-25T11:16:23.991Z,1.30
2024-04-25T11:19:01.349Z,1.55
2024-04-25T11:21:37.048Z,1.88
2024-04-25T11:24:04.598Z,1.33
2024-04-25T11:26:31.854Z,1.45
2024-04-25T11:28:59.359Z,1.40
2024-04-25T11:31:26.570Z,1.30
2024-04-25T11:33:54.045Z,1.20
2024-04-25T11:36:22.646Z,1.70
2024-04-25T11:38:57.421Z,1.30
2024-04-25T11:41:25.027Z,1.38
2024-04-25T11:43:52.261Z,1.33
2024-04-25T11:46:19.595Z,1.40
2024-04-25T11:48:51.050Z,1.67
2024-04-25T11:51:18.280Z,1.45
2024-04-25T11:53:45.499Z,1.60
2024-04-25T11:56:15.268Z,1.38
2024-04-25T11:58:42.345Z,1.38
2024-04-25T12:01:09.529Z,1.80
2024-04-25T12:03:36.742Z,1.50
2024-04-25T12:06:04.199Z,1.73
2024-04-25T12:08:31.418Z,1.80
2024-04-25T12:10:58.510Z,1.73
2024-04-25T12:13:28.114Z,1.70
2024-04-25T12:15:55.270Z,2.47
2024-04-25T12:18:25.590Z,1.73
2024-04-25T12:20:53.341Z,1.50
2024-04-25T12:23:23.664Z,1.40
2024-04-25T12:25:54.289Z,1.63
2024-04-25T12:28:21.394Z,1.67
2024-04-25T12:30:51.133Z,1.58
2024-04-25T12:33:18.416Z,1.70
2024-04-25T12:35:45.724Z,2.28
2024-04-25T12:38:12.844Z,1.63
2024-04-25T12:40:39.953Z,1.70
2024-04-25T12:43:07.144Z,2.30
2024-04-25T12:45:37.566Z,1.70
2024-04-25T12:48:10.036Z,1.90
2024-04-25T12:50:38.186Z,1.92
2024-04-25T12:53:05.390Z,2.00
2024-04-25T12:55:32.750Z,1.73
2024-04-25T12:57:59.876Z,1.80
2024-04-25T13:00:27.075Z,1.77
2024-04-25T13:02:54.306Z,2.13
2024-04-25T13:05:24.049Z,1.73
2024-04-25T13:07:51.215Z,1.70
2024-04-25T13:10:18.471Z,1.50
2024-04-25T13:12:47.944Z,1.88
2024-04-25T13:15:15.215Z,1.23
2024-04-25T13:17:42.507Z,1.40
2024-04-25T13:20:11.246Z,1.50
2024-04-25T13:25:07.987Z,1.25
2024-04-25T13:27:35.093Z,1.98
2024-04-25T13:30:02.278Z,1.70
2024-04-25T13:32:29.478Z,1.73
2024-04-25T13:34:59.571Z,1.55
2024-04-25T13:37:26.676Z,1.77
2024-04-25T13:39:56.302Z,1.90
2024-04-25T13:42:23.608Z,2.10
2024-04-25T13:44:50.845Z,1.83
2024-04-25T13:47:18.048Z,1.83
2024-04-25T13:49:45.270Z,1.77
2024-04-25T13:52:12.350Z,2.22
2024-04-25T13:54:41.941Z,1.30
2024-04-25T13:57:11.987Z,1.42
2024-04-25T13:59:40.540Z,1.70
2024-04-25T14:02:08.207Z,2.17
2024-04-25T14:04:35.316Z,1.98
2024-04-25T14:07:03.048Z,1.60
2024-04-25T14:11:58.033Z,1.92
2024-04-25T14:14:30.867Z,1.98
2024-04-25T14:16:57.982Z,2.20
2024-04-25T14:19:26.561Z,2.00
2024-04-25T14:21:53.641Z,2.05
2024-04-25T14:24:20.736Z,2.08
2024-04-25T14:27:06.681Z,1.63
2024-04-25T14:29:38.869Z,2.50
2024-04-25T14:32:06.452Z,2.10
2024-04-25T14:34:34.433Z,2.08
2024-04-25T14:37:01.552Z,2.08
2024-04-25T14:39:28.698Z,2.22
2024-04-25T14:41:55.995Z,2.40
2024-04-25T14:44:23.123Z,2.17
2024-04-25T14:46:54.378Z,2.60
2024-04-25T14:49:21.940Z,2.72
2024-04-25T14:51:49.000Z,2.50
2024-04-25T14:54:16.171Z,2.95
2024-04-25T14:56:43.375Z,2.83
2024-04-25T14:59:10.487Z,3.13
2024-04-25T15:01:37.594Z,3.13
2024-04-25T15:04:08.882Z,2.80
2024-04-25T15:06:38.499Z,3.30
2024-04-25T15:09:05.583Z,3.45
2024-04-25T15:11:32.781Z,3.72
2024-04-25T15:13:59.938Z,3.53
2024-04-25T15:16:27.750Z,3.25
2024-04-25T15:18:55.422Z,2.97
2024-04-25T15:21:25.008Z,3.38
2024-04-25T15:23:52.216Z,2.95
2024-04-25T15:26:19.497Z,3.08
2024-04-25T15:28:46.603Z,3.30
2024-04-25T15:31:17.380Z,3.17
2024-04-25T15:33:45.001Z,3.28
2024-04-25T15:36:12.093Z,3.08
2024-04-25T15:38:41.680Z,3.08
2024-04-25T15:41:10.068Z,3.47
2024-04-25T15:43:38.960Z,3.28
2024-04-25T15:48:33.316Z,3.10
2024-04-25T15:51:00.577Z,3.03
2024-04-25T15:53:27.753Z,3.17
2024-04-25T15:55:58.931Z,2.80
2024-04-25T15:58:26.388Z,3.03
2024-04-25T16:00:53.762Z,3.80
2024-04-25T16:03:22.055Z,3.10
2024-04-25T16:05:49.405Z,3.72
2024-04-25T16:08:16.604Z,3.42
2024-04-25T16:10:46.657Z,3.75
2024-04-25T16:13:17.934Z,3.65
2024-04-25T16:15:46.440Z,3.88
2024-04-25T16:18:13.581Z,3.90
2024-04-25T16:20:40.845Z,3.50
2024-04-25T16:23:07.988Z,3.95
2024-04-25T16:25:37.620Z,4.38
2024-04-25T16:28:05.172Z,4.38
2024-04-25T16:30:34.799Z,4.32
2024-04-25T16:33:02.095Z,3.70
2024-04-25T16:35:29.356Z,3.75
2024-04-25T16:37:57.055Z,3.72
2024-04-25T16:40:25.271Z,4.18
2024-04-25T16:42:55.777Z,4.05
2024-04-25T16:45:22.903Z,4.80
2024-04-25T16:47:52.632Z,4.05
2024-04-25T16:50:19.856Z,4.65
2024-04-25T16:52:46.971Z,4.78
2024-04-25T16:55:15.352Z,5.07
2024-04-25T16:57:42.502Z,4.57
2024-04-25T17:00:10.328Z,5.00
2024-04-25T17:02:37.502Z,4.72
2024-04-25T17:05:12.171Z,5.43
2024-04-25T17:07:39.263Z,5.80
2024-04-25T17:10:08.375Z,4.72
2024-04-25T17:12:35.459Z,5.07
2024-04-25T17:15:02.647Z,4.78
2024-04-25T17:17:29.860Z,5.18
2024-04-25T17:19:57.063Z,4.70
2024-04-25T17:22:26.661Z,5.53
2024-04-25T17:24:53.794Z,5.72
2024-04-25T17:27:20.904Z,5.72
2024-04-25T17:29:48.052Z,5.10
2024-04-25T17:32:15.416Z,5.22
2024-04-25T17:34:44.112Z,5.47
2024-04-25T17:37:12.869Z,5.95
2024-04-25T17:39:42.571Z,5.00
2024-04-25T17:42:09.773Z,4.80
2024-04-25T17:44:37.054Z,5.22
2024-04-25T17:47:11.036Z,5.18
2024-04-25T17:49:40.030Z,5.50
2024-04-25T17:54:36.087Z,4.47
2024-04-25T17:57:05.855Z,5.80
2024-04-25T17:59:33.037Z,5.38
2024-04-25T18:02:01.323Z,5.32
2024-04-25T18:04:29.400Z,5.13
2024-04-25T18:06:56.590Z,6.30
2024-04-25T18:09:24.550Z,6.00
2024-04-25T18:11:51.701Z,6.40
2024-04-25T18:14:21.296Z,8.80
2024-04-25T18:16:48.430Z,7.13
2024-04-25T18:19:15.752Z,5.43
2024-04-25T18:21:42.983Z,5.78
2024-04-25T18:24:11.304Z,6.18
2024-04-25T18:26:38.549Z,6.65
2024-04-25T18:29:05.662Z,6.32
2024-04-25T18:31:35.246Z,5.45
2024-04-25T18:34:02.346Z,7.72
2024-04-25T18:36:29.430Z,8.60
2024-04-25T18:38:56.512Z,8.25
2024-04-25T18:41:23.730Z,6.03
2024-04-25T18:43:50.896Z,6.18
2024-04-25T18:46:19.784Z,5.72
2024-04-25T18:48:49.539Z,5.78
2024-04-25T18:51:20.057Z,7.85
2024-04-25T18:53:47.455Z,5.30
2024-04-25T18:56:14.727Z,5.75
2024-04-25T18:58:41.787Z,5.68
2024-04-25T19:01:08.952Z,4.78
2024-04-25T19:03:36.554Z,5.30
2024-04-25T19:06:09.319Z,7.15
2024-04-25T19:08:36.408Z,6.30
2024-04-25T19:11:05.521Z,4.95
2024-04-25T19:13:32.714Z,5.20
2024-04-25T19:15:59.821Z,5.03
2024-04-25T19:18:27.559Z,4.20
2024-04-25T19:20:56.958Z,4.55
2024-04-25T19:23:26.690Z,3.33
2024-04-25T19:25:53.858Z,4.03
2024-04-25T19:28:21.128Z,3.55
2024-04-25T19:30:48.234Z,3.42
2024-04-25T19:33:15.421Z,3.22
2024-04-25T19:35:42.667Z,3.65
2024-04-25T19:38:11.546Z,3.38
2024-04-25T19:40:42.378Z,3.50
2024-04-25T19:43:09.481Z,3.20
2024-04-25T19:45:36.667Z,3.55
2024-04-25T19:48:04.735Z,3.28
2024-04-25T19:50:31.912Z,3.95
2024-04-25T19:52:59.712Z,3.85
2024-04-25T19:55:26.772Z,3.80
2024-04-25T19:57:56.485Z,3.97
2024-04-25T20:00:23.662Z,4.20
2024-04-25T20:02:50.843Z,4.47
2024-04-25T20:05:18.116Z,4.35
2024-04-25T20:07:45.715Z,4.63
2024-04-25T20:10:12.828Z,4.72
2024-04-25T20:12:40.113Z,4.68
2024-04-25T20:15:09.761Z,5.00
2024-04-25T20:17:55.351Z,4.95
2024-04-25T20:20:41.241Z,5.13
2024-04-25T20:23:08.347Z,5.38
2024-04-25T20:25:35.490Z,5.22
2024-04-25T20:28:02.620Z,5.10
2024-04-25T20:30:32.252Z,5.57
2024-04-25T20:32:59.470Z,4.90
2024-04-25T20:35:26.641Z,6.30
2024-04-25T20:37:53.859Z,6.18
2024-04-25T20:40:20.982Z,6.05
2024-04-25T20:42:48.131Z,6.22
2024-04-25T20:45:15.736Z,6.18
2024-04-25T20:47:45.410Z,6.72
2024-04-25T20:50:12.752Z,6.20
2024-04-25T20:52:39.887Z,6.78
2024-04-25T20:55:07.596Z,6.75
2024-04-25T20:57:34.694Z,5.80
2024-04-25T21:00:01.921Z,6.40
2024-04-25T21:02:31.165Z,5.95
2024-04-25T21:05:01.740Z,6.22
2024-04-25T21:07:28.791Z,6.22
2024-04-25T21:09:55.918Z,6.82
2024-04-25T21:12:23.012Z,6.22
2024-04-25T21:14:50.129Z,5.97
2024-04-25T21:17:17.280Z,5.95
2024-04-25T21:19:44.504Z,5.70
2024-04-25T21:22:14.340Z,5.55
2024-04-25T21:24:41.438Z,6.05
2024-04-25T21:27:08.645Z,5.50
2024-04-25T21:29:36.740Z,5.85
2024-04-25T21:32:04.202Z,5.70
2024-04-25T21:34:31.348Z,5.38
2024-04-25T21:36:58.454Z,5.22
2024-04-25T21:39:28.092Z,5.25
2024-04-25T21:41:55.290Z,5.75
2024-04-25T21:44:22.401Z,5.55
2024-04-25T21:46:49.980Z,5.07
2024-04-25T21:49:17.278Z,5.72
2024-04-25T21:51:45.834Z,5.85
2024-04-25T21:54:13.361Z,4.88
2024-04-25T21:56:44.054Z,5.05
2024-04-25T21:59:11.584Z,5.88
2024-04-25T22:01:50.131Z,5.65
2024-04-25T22:04:17.298Z,5.22
2024-04-25T22:06:44.378Z,5.30
2024-04-25T22:09:11.703Z,6.10
2024-04-25T22:11:39.010Z,5.43
2024-04-25T22:14:08.920Z,5.82
2024-04-25T22:16:36.024Z,5.78
2024-04-25T22:19:03.243Z,5.57
2024-04-25T22:21:31.846Z,5.97
2024-04-25T22:23:59.042Z,5.68
2024-04-25T22:26:26.324Z,5.30
2024-04-25T22:28:53.479Z,5.53
2024-04-25T22:31:24.704Z,6.63
2024-04-25T22:33:51.974Z,6.07
2024-04-25T22:36:20.833Z,6.20
2024-04-25T22:38:47.987Z,6.10
2024-04-25T22:41:15.137Z,5.93
2024-04-25T22:43:42.295Z,6.07
2024-04-25T22:46:10.393Z,6.05
2024-04-25T22:48:40.129Z,6.10
2024-04-25T22:51:07.439Z,5.82
2024-04-25T22:53:35.835Z,6.95
2024-04-25T22:56:03.071Z,6.65
2024-04-25T22:58:30.182Z,6.43
2024-04-25T23:00:57.380Z,6.50
2024-04-25T23:03:27.780Z,6.05
2024-04-25T23:05:58.952Z,6.28
2024-04-25T23:08:26.480Z,6.80
2024-04-25T23:10:54.450Z,6.97
2024-04-25T23:13:21.615Z,6.32
2024-04-25T23:15:49.343Z,6.47
2024-04-25T23:18:16.700Z,7.15
2024-04-25T23:20:43.885Z,6.75
2024-04-25T23:23:13.675Z,6.78
2024-04-25T23:25:41.020Z,6.28
2024-04-25T23:28:08.181Z,6.22
2024-04-25T23:30:35.290Z,7.07
2024-04-25T23:33:02.676Z,6.63
2024-04-25T23:35:29.861Z,6.50
2024-04-25T23:37:56.969Z,5.97
2024-04-25T23:40:26.610Z,6.00
2024-04-25T23:42:53.753Z,6.43
2024-04-25T23:45:20.884Z,6.13
2024-04-25T23:47:48.322Z,6.50
2024-04-25T23:50:15.734Z,6.65
2024-04-25T23:52:42.865Z,6.43
2024-04-25T23:55:10.043Z,6.57
2024-04-25T23:57:39.711Z,6.13
